createdAt,value
2019-04-14T00:00:01.841Z,0.00
2019-04-14T00:01:02.214Z,0.00
2019-04-14T00:02:02.861Z,0.00
2019-04-14T00:03:02.280Z,0.00
2019-04-14T00:04:02.964Z,0.00
2019-04-14T00:05:01.914Z,0.00
2019-04-14T00:06:02.672Z,0.00
2019-04-14T00:07:01.904Z,0.00
2019-04-14T00:08:02.439Z,0.00
2019-04-14T00:09:03.150Z,0.00
2019-04-14T00:10:02.861Z,0.00
2019-04-14T00:11:01.837Z,0.00
2019-04-14T00:12:04.730Z,0.00
2019-04-14T00:13:02.670Z,0.00
2019-04-14T00:14:02.919Z,0.00
2019-04-14T00:15:02.502Z,0.00
2019-04-14T00:16:03.059Z,0.00
2019-04-14T00:17:02.136Z,0.00
2019-04-14T00:18:01.707Z,0.00
2019-04-14T00:19:02.308Z,0.00
2019-04-14T00:20:03.162Z,0.00
2019-04-14T00:21:02.245Z,0.00
2019-04-14T00:22:03.076Z,0.00
2019-04-14T00:23:02.201Z,0.00
2019-04-14T00:24:01.671Z,0.00
2019-04-14T00:25:02.365Z,0.00
2019-04-14T00:26:02.977Z,0.00
2019-04-14T00:27:02.049Z,0.00
2019-04-14T00:28:02.941Z,0.00
2019-04-14T00:29:02.665Z,0.00
2019-04-14T00:30:01.731Z,0.00
2019-04-14T00:31:02.332Z,0.00
2019-04-14T00:32:02.972Z,0.00
2019-04-14T00:33:01.942Z,0.00
2019-04-14T00:34:02.837Z,0.00
2019-04-14T00:35:01.765Z,0.00
2019-04-14T00:36:04.490Z,0.00
2019-04-14T00:37:01.397Z,0.00
2019-04-14T00:38:02.364Z,0.00
2019-04-14T00:39:01.410Z,0.00
2019-04-14T00:40:01.957Z,0.00
2019-04-14T00:41:01.444Z,0.00
2019-04-14T00:42:03.395Z,0.00
2019-04-14T00:43:02.674Z,0.00
2019-04-14T00:44:01.527Z,0.00
2019-04-14T00:45:02.726Z,0.00
2019-04-14T00:46:02.704Z,0.00
2019-04-14T00:47:01.298Z,0.00
2019-04-14T00:48:07.907Z,0.00
2019-04-14T00:49:02.817Z,0.00
2019-04-14T00:50:01.705Z,0.00
2019-04-14T00:51:01.279Z,0.00
2019-04-14T00:52:01.566Z,0.00
2019-04-14T00:53:01.272Z,0.00
2019-04-14T00:54:02.185Z,0.00
2019-04-14T00:55:01.235Z,0.00
2019-04-14T00:56:01.980Z,0.00
2019-04-14T00:57:01.237Z,0.00
2019-04-14T00:58:01.659Z,0.00
2019-04-14T00:59:01.313Z,0.00
2019-04-14T01:00:01.811Z,0.00
2019-04-14T01:01:02.596Z,0.00
2019-04-14T01:02:01.391Z,0.00
2019-04-14T01:03:02.549Z,0.00
2019-04-14T01:04:01.281Z,0.00
2019-04-14T01:05:02.441Z,0.00
2019-04-14T01:06:01.250Z,0.00
2019-04-14T01:07:02.188Z,0.00
2019-04-14T01:08:01.110Z,0.00
2019-04-14T01:09:02.135Z,0.00
2019-04-14T01:10:01.833Z,0.00
2019-04-14T01:11:01.160Z,0.00
2019-04-14T01:12:01.790Z,0.00
2019-04-14T01:13:01.028Z,0.00
2019-04-14T01:14:01.601Z,0.00
2019-04-14T01:15:01.022Z,0.00
2019-04-14T01:16:08.739Z,0.00
2019-04-14T01:17:02.762Z,0.00
2019-04-14T01:18:01.484Z,0.00
2019-04-14T01:19:01.128Z,0.00
2019-04-14T01:20:01.454Z,0.00
2019-04-14T01:21:02.407Z,0.00
2019-04-14T01:22:01.102Z,0.00
2019-04-14T01:23:01.963Z,0.00
2019-04-14T01:24:01.074Z,0.00
2019-04-14T01:25:02.284Z,0.00
2019-04-14T01:26:00.891Z,0.00
2019-04-14T01:27:01.707Z,0.00
2019-04-14T01:28:00.995Z,0.00
2019-04-14T01:29:01.421Z,0.00
2019-04-14T01:30:00.847Z,0.00
2019-04-14T01:31:03.248Z,0.00
2019-04-14T01:32:00.884Z,0.00
2019-04-14T01:33:01.122Z,0.00
2019-04-14T01:34:01.867Z,0.00
2019-04-14T01:35:01.011Z,0.00
2019-04-14T01:36:01.730Z,0.00
2019-04-14T01:37:01.026Z,0.00
2019-04-14T01:38:01.612Z,0.00
2019-04-14T01:39:00.958Z,0.00
2019-04-14T01:40:00.973Z,0.00
2019-04-14T01:41:02.020Z,0.00
2019-04-14T01:42:00.776Z,0.00
2019-04-14T01:43:01.729Z,0.00
2019-04-14T01:44:00.731Z,0.00
2019-04-14T01:45:01.402Z,0.00
2019-04-14T01:46:09.721Z,0.00
2019-04-14T01:47:01.677Z,0.00
2019-04-14T01:48:01.715Z,0.00
2019-04-14T01:49:00.740Z,0.00
2019-04-14T01:50:01.754Z,0.00
2019-04-14T01:51:00.638Z,0.00
2019-04-14T01:52:01.372Z,0.00
2019-04-14T01:53:01.140Z,0.00
2019-04-14T01:54:01.783Z,0.00
2019-04-14T01:55:00.596Z,0.00
2019-04-14T01:56:01.324Z,0.00
2019-04-14T01:57:00.574Z,0.00
2019-04-14T01:58:01.053Z,0.00
2019-04-14T01:59:00.554Z,0.00
2019-04-14T02:00:01.053Z,0.00
2019-04-14T02:01:00.554Z,0.00
2019-04-14T02:02:00.819Z,0.00
2019-04-14T02:03:00.572Z,0.00
2019-04-14T02:04:00.737Z,0.00
2019-04-14T02:05:01.757Z,0.00
2019-04-14T02:06:00.536Z,0.00
2019-04-14T02:07:01.596Z,0.00
2019-04-14T02:08:00.654Z,0.00
2019-04-14T02:09:01.166Z,0.00
2019-04-14T02:10:01.770Z,0.00
2019-04-14T02:11:00.907Z,0.00
2019-04-14T02:12:01.592Z,0.00
2019-04-14T02:13:00.672Z,0.00
2019-04-14T02:14:01.614Z,0.00
2019-04-14T02:15:00.502Z,0.00
2019-04-14T02:16:13.027Z,0.00
2019-04-14T02:17:04.243Z,0.00
2019-04-14T02:18:00.943Z,0.00
2019-04-14T02:19:00.425Z,0.00
2019-04-14T02:20:01.234Z,0.00
2019-04-14T02:21:00.360Z,0.00
2019-04-14T02:22:00.696Z,0.00
2019-04-14T02:23:01.688Z,0.00
2019-04-14T02:24:00.547Z,0.00
2019-04-14T02:25:01.445Z,0.00
2019-04-14T02:26:00.293Z,0.00
2019-04-14T02:27:01.268Z,0.00
2019-04-14T02:28:00.306Z,0.00
2019-04-14T02:29:01.435Z,0.00
2019-04-14T02:30:00.477Z,0.00
2019-04-14T02:31:15.332Z,0.00
2019-04-14T02:32:38.693Z,0.00
2019-04-14T02:33:32.147Z,0.00
2019-04-14T02:35:28.543Z,0.00
2019-04-14T02:36:30.576Z,0.00
2019-04-14T02:37:26.410Z,0.00
2019-04-14T02:39:29.303Z,0.00
2019-04-14T02:40:45.400Z,0.00
2019-04-14T02:41:49.241Z,0.00
2019-04-14T02:42:40.216Z,0.00
2019-04-14T02:43:30.356Z,0.00
2019-04-14T02:44:32.466Z,0.00
2019-04-14T02:45:31.695Z,0.00
2019-04-14T02:46:32.029Z,0.00
2019-04-14T02:47:45.433Z,0.00
2019-04-14T02:48:35.754Z,0.00
2019-04-14T02:49:29.395Z,0.00
2019-04-14T02:50:27.169Z,0.00
2019-04-14T02:51:26.864Z,0.00
2019-04-14T02:52:30.405Z,0.00
2019-04-14T02:53:32.625Z,0.00
2019-04-14T02:54:36.644Z,0.00
2019-04-14T02:55:22.166Z,0.00
2019-04-14T02:57:37.732Z,0.00
2019-04-14T02:58:36.246Z,0.00
2019-04-14T02:59:27.112Z,0.00
2019-04-14T03:00:33.167Z,0.00
2019-04-14T03:02:30.225Z,0.00
2019-04-14T03:03:31.696Z,0.00
2019-04-14T03:04:25.829Z,0.00
2019-04-14T03:05:26.487Z,0.00
2019-04-14T03:06:26.066Z,0.00
2019-04-14T03:07:30.664Z,0.00
2019-04-14T03:10:31.919Z,0.00
2019-04-14T03:11:30.914Z,0.00
2019-04-14T03:12:34.712Z,0.00
2019-04-14T03:13:29.352Z,0.00
2019-04-14T03:14:30.809Z,0.00
2019-04-14T03:15:23.992Z,0.00
2019-04-14T03:16:29.645Z,0.00
2019-04-14T03:17:29.135Z,0.00
2019-04-14T03:19:29.880Z,0.00
2019-04-14T03:20:27.823Z,0.00
2019-04-14T03:21:28.045Z,0.00
2019-04-14T03:22:28.967Z,0.00
2019-04-14T03:23:37.604Z,0.00
2019-04-14T03:24:28.546Z,0.00
2019-04-14T03:25:17.463Z,0.00
2019-04-14T03:26:28.086Z,0.00
2019-04-14T03:27:30.528Z,0.00
2019-04-14T03:28:37.905Z,0.00
2019-04-14T03:29:29.208Z,0.00
2019-04-14T03:31:52.031Z,0.00
2019-04-14T03:32:52.886Z,0.00
2019-04-14T03:33:52.502Z,0.00
2019-04-14T03:36:01.397Z,0.00
2019-04-14T03:38:26.315Z,0.00
2019-04-14T03:39:33.420Z,0.00
2019-04-14T03:40:27.609Z,0.00
2019-04-14T03:41:29.930Z,0.00
2019-04-14T03:42:28.695Z,0.00
2019-04-14T03:43:25.034Z,0.00
2019-04-14T03:44:28.626Z,0.00
2019-04-14T03:45:36.176Z,0.00
2019-04-14T03:46:39.286Z,0.00
2019-04-14T03:47:25.044Z,0.00
2019-04-14T03:48:54.115Z,0.00
2019-04-14T03:51:43.191Z,0.00
2019-04-14T03:52:31.883Z,0.00
2019-04-14T03:53:27.201Z,0.00
2019-04-14T03:54:20.094Z,0.00
2019-04-14T03:55:16.032Z,0.00
2019-04-14T03:56:05.787Z,0.00
2019-04-14T03:57:00.380Z,0.00
2019-04-14T03:58:00.537Z,0.00
2019-04-14T03:58:59.837Z,0.00
2019-04-14T04:00:00.612Z,0.00
2019-04-14T04:00:59.775Z,0.00
2019-04-14T04:01:59.342Z,0.00
2019-04-14T04:02:59.778Z,0.00
2019-04-14T04:03:59.276Z,0.00
2019-04-14T04:04:59.875Z,0.00
2019-04-14T04:06:00.680Z,0.00
2019-04-14T04:06:59.617Z,0.00
2019-04-14T04:08:00.324Z,0.00
2019-04-14T04:08:59.669Z,0.00
2019-04-14T04:10:00.496Z,0.00
2019-04-14T04:10:59.787Z,0.00
2019-04-14T04:12:00.523Z,0.00
2019-04-14T04:12:59.721Z,0.00
2019-04-14T04:13:59.220Z,0.00
2019-04-14T04:14:59.667Z,0.00
2019-04-14T04:16:00.434Z,0.00
2019-04-14T04:16:59.549Z,0.00
2019-04-14T04:18:00.210Z,0.00
2019-04-14T04:19:05.645Z,0.00
2019-04-14T04:20:00.149Z,0.00
2019-04-14T04:20:59.273Z,0.00
2019-04-14T04:21:59.577Z,0.00
2019-04-14T04:22:59.248Z,0.00
2019-04-14T04:23:59.689Z,0.00
2019-04-14T04:24:59.310Z,0.00
2019-04-14T04:25:59.454Z,0.00
2019-04-14T04:27:00.129Z,0.00
2019-04-14T04:27:59.147Z,0.00
2019-04-14T04:29:00.512Z,5.62
2019-04-14T04:29:59.225Z,5.62
2019-04-14T04:30:59.143Z,5.62
2019-04-14T04:31:59.137Z,5.62
2019-04-14T04:33:00.051Z,5.62
2019-04-14T04:33:59.070Z,5.62
2019-04-14T04:34:59.918Z,5.62
2019-04-14T04:35:58.954Z,11.25
2019-04-14T04:36:59.599Z,11.25
2019-04-14T04:37:58.979Z,11.25
2019-04-14T04:38:59.631Z,11.25
2019-04-14T04:39:59.269Z,11.25
2019-04-14T04:40:59.443Z,16.88
2019-04-14T04:41:58.910Z,16.88
2019-04-14T04:42:59.189Z,16.88
2019-04-14T04:43:58.871Z,16.88
2019-04-14T04:44:59.557Z,16.88
2019-04-14T04:45:58.897Z,22.50
2019-04-14T04:46:59.155Z,22.50
2019-04-14T04:48:00.119Z,22.50
2019-04-14T04:49:08.259Z,22.50
2019-04-14T04:50:00.088Z,28.12
2019-04-14T04:50:59.021Z,28.12
2019-04-14T04:51:59.660Z,28.12
2019-04-14T04:52:58.933Z,33.75
2019-04-14T04:53:59.471Z,33.75
2019-04-14T04:55:00.112Z,33.75
2019-04-14T04:55:59.303Z,33.75
2019-04-14T04:56:58.844Z,39.38
2019-04-14T04:57:59.100Z,39.38
2019-04-14T04:58:58.996Z,39.38
2019-04-14T04:59:58.726Z,45.00
2019-04-14T05:00:59.566Z,45.00
2019-04-14T05:01:58.704Z,45.00
2019-04-14T05:02:59.340Z,50.62
2019-04-14T05:03:58.696Z,50.62
2019-04-14T05:04:59.142Z,50.62
2019-04-14T05:05:58.660Z,50.62
2019-04-14T05:06:59.265Z,56.25
2019-04-14T05:07:58.638Z,56.25
2019-04-14T05:08:59.101Z,61.88
2019-04-14T05:09:58.617Z,61.88
2019-04-14T05:10:58.962Z,61.88
2019-04-14T05:11:58.603Z,67.50
2019-04-14T05:12:58.687Z,67.50
2019-04-14T05:13:58.582Z,67.50
2019-04-14T05:14:58.884Z,73.12
2019-04-14T05:15:59.640Z,73.12
2019-04-14T05:16:59.311Z,78.75
2019-04-14T05:17:58.588Z,78.75
2019-04-14T05:19:12.216Z,78.75
2019-04-14T05:20:00.716Z,84.38
2019-04-14T05:20:59.623Z,84.38
2019-04-14T05:21:58.479Z,84.38
2019-04-14T05:22:59.375Z,90.00
2019-04-14T05:23:58.563Z,90.00
2019-04-14T05:24:59.282Z,95.62
2019-04-14T05:25:58.582Z,95.62
2019-04-14T05:26:59.255Z,95.62
2019-04-14T05:27:58.551Z,101.25
2019-04-14T05:28:59.124Z,101.25
2019-04-14T05:29:58.395Z,101.25
2019-04-14T05:30:58.937Z,106.88
2019-04-14T05:31:58.384Z,106.88
2019-04-14T05:32:58.758Z,112.50
2019-04-14T05:33:58.373Z,112.50
2019-04-14T05:34:58.734Z,112.50
2019-04-14T05:35:58.358Z,106.88
2019-04-14T05:36:58.554Z,112.50
2019-04-14T05:37:59.608Z,112.50
2019-04-14T05:39:00.269Z,118.12
2019-04-14T05:39:59.283Z,123.75
2019-04-14T05:40:58.573Z,118.12
2019-04-14T05:42:06.559Z,118.12
2019-04-14T05:43:00.243Z,129.38
2019-04-14T05:44:01.459Z,140.62
2019-04-14T05:44:58.279Z,140.62
2019-04-14T05:45:59.125Z,135.00
2019-04-14T05:46:58.221Z,135.00
2019-04-14T05:47:58.904Z,140.62
2019-04-14T05:48:58.230Z,146.25
2019-04-14T05:49:59.335Z,146.25
2019-04-14T05:50:58.177Z,146.25
2019-04-14T05:51:59.189Z,151.88
2019-04-14T05:52:58.182Z,151.88
2019-04-14T05:53:58.972Z,151.88
2019-04-14T05:54:58.165Z,157.50
2019-04-14T05:55:59.274Z,163.12
2019-04-14T05:56:58.192Z,174.38
2019-04-14T05:57:59.191Z,163.12
2019-04-14T05:58:58.121Z,168.75
2019-04-14T05:59:59.418Z,163.12
2019-04-14T06:00:58.263Z,185.62
2019-04-14T06:01:59.338Z,185.62
2019-04-14T06:02:59.505Z,180.00
2019-04-14T06:03:58.233Z,174.38
2019-04-14T06:04:59.343Z,168.75
2019-04-14T06:05:58.193Z,185.62
2019-04-14T06:06:58.025Z,180.00
2019-04-14T06:07:58.318Z,180.00
2019-04-14T06:08:58.001Z,180.00
2019-04-14T06:09:58.119Z,180.00
2019-04-14T06:10:57.977Z,180.00
2019-04-14T06:11:57.973Z,180.00
2019-04-14T06:12:58.005Z,174.38
2019-04-14T06:13:58.168Z,191.25
2019-04-14T06:14:57.966Z,185.62
2019-04-14T06:15:58.322Z,185.62
2019-04-14T06:16:57.936Z,196.88
2019-04-14T06:17:57.960Z,191.25
2019-04-14T06:18:57.901Z,191.25
2019-04-14T06:19:58.087Z,185.62
2019-04-14T06:20:57.876Z,185.62
2019-04-14T06:21:58.018Z,191.25
2019-04-14T06:22:57.906Z,191.25
2019-04-14T06:23:57.863Z,191.25
2019-04-14T06:24:57.846Z,196.88
2019-04-14T06:25:58.033Z,191.25
2019-04-14T06:26:57.875Z,191.25
2019-04-14T06:27:57.997Z,202.50
2019-04-14T06:28:57.797Z,196.88
2019-04-14T06:29:57.829Z,202.50
2019-04-14T06:30:57.794Z,196.88
2019-04-14T06:31:58.050Z,202.50
2019-04-14T06:32:57.801Z,202.50
2019-04-14T06:33:57.898Z,208.12
2019-04-14T06:34:57.750Z,208.12
2019-04-14T06:35:57.748Z,202.50
2019-04-14T06:36:57.721Z,213.75
2019-04-14T06:37:57.770Z,219.38
2019-04-14T06:38:57.708Z,213.75
2019-04-14T06:39:57.960Z,219.38
2019-04-14T06:40:57.689Z,213.75
2019-04-14T06:41:57.706Z,213.75
2019-04-14T06:42:57.719Z,213.75
2019-04-14T06:43:57.782Z,219.38
2019-04-14T06:44:57.655Z,219.38
2019-04-14T06:45:57.661Z,213.75
2019-04-14T06:46:57.611Z,219.38
2019-04-14T06:47:57.649Z,225.00
2019-04-14T06:48:57.610Z,236.25
2019-04-14T06:49:57.694Z,219.38
2019-04-14T06:50:57.585Z,236.25
2019-04-14T06:51:57.625Z,225.00
2019-04-14T06:52:57.655Z,230.62
2019-04-14T06:53:57.582Z,225.00
2019-04-14T06:54:57.530Z,225.00
2019-04-14T06:55:57.673Z,247.50
2019-04-14T06:56:57.515Z,241.88
2019-04-14T06:57:57.620Z,230.62
2019-04-14T06:58:57.489Z,230.62
2019-04-14T06:59:57.566Z,236.25
2019-04-14T07:00:57.467Z,236.25
2019-04-14T07:01:59.331Z,230.62
2019-04-14T07:02:57.478Z,236.25
2019-04-14T07:03:57.475Z,247.50
2019-04-14T07:04:57.422Z,253.12
2019-04-14T07:06:00.073Z,258.75
2019-04-14T07:06:57.424Z,241.88
2019-04-14T07:07:57.733Z,253.12
2019-04-14T07:08:57.417Z,241.88
2019-04-14T07:09:57.443Z,241.88
2019-04-14T07:10:57.367Z,241.88
2019-04-14T07:11:57.461Z,258.75
2019-04-14T07:12:57.343Z,241.88
2019-04-14T07:13:57.415Z,241.88
2019-04-14T07:14:57.383Z,253.12
2019-04-14T07:15:57.428Z,247.50
2019-04-14T07:16:57.299Z,247.50
2019-04-14T07:17:57.386Z,247.50
2019-04-14T07:18:57.322Z,253.12
2019-04-14T07:20:02.142Z,253.12
2019-04-14T07:20:58.273Z,253.12
2019-04-14T07:21:57.335Z,270.00
2019-04-14T07:22:57.246Z,270.00
2019-04-14T07:23:57.370Z,258.75
2019-04-14T07:24:57.327Z,258.75
2019-04-14T07:25:57.239Z,270.00
2019-04-14T07:26:57.251Z,270.00
2019-04-14T07:27:57.212Z,258.75
2019-04-14T07:28:57.327Z,253.12
2019-04-14T07:29:57.172Z,258.75
2019-04-14T07:30:57.161Z,264.38
2019-04-14T07:31:57.142Z,258.75
2019-04-14T07:32:57.286Z,258.75
2019-04-14T07:33:57.179Z,264.38
2019-04-14T07:34:57.215Z,258.75
2019-04-14T07:35:57.111Z,258.75
2019-04-14T07:36:57.487Z,258.75
2019-04-14T07:37:57.087Z,258.75
2019-04-14T07:38:57.121Z,258.75
2019-04-14T07:39:57.085Z,258.75
2019-04-14T07:40:57.159Z,264.38
2019-04-14T07:41:57.056Z,258.75
2019-04-14T07:42:57.160Z,258.75
2019-04-14T07:43:57.004Z,264.38
2019-04-14T07:44:57.131Z,264.38
2019-04-14T07:45:57.039Z,264.38
2019-04-14T07:46:57.088Z,264.38
2019-04-14T07:47:56.996Z,264.38
2019-04-14T07:48:57.104Z,264.38
2019-04-14T07:49:56.946Z,264.38
2019-04-14T07:50:57.078Z,258.75
2019-04-14T07:51:56.927Z,264.38
2019-04-14T07:52:57.060Z,264.38
2019-04-14T07:53:56.921Z,264.38
2019-04-14T07:54:57.072Z,264.38
2019-04-14T07:55:56.968Z,264.38
2019-04-14T07:56:56.981Z,264.38
2019-04-14T07:57:56.919Z,270.00
2019-04-14T07:58:56.995Z,270.00
2019-04-14T07:59:56.867Z,270.00
2019-04-14T08:00:57.140Z,270.00
2019-04-14T08:01:56.973Z,270.00
2019-04-14T08:02:57.840Z,270.00
2019-04-14T08:03:56.910Z,270.00
2019-04-14T08:04:56.834Z,270.00
2019-04-14T08:05:56.953Z,270.00
2019-04-14T08:06:56.892Z,270.00
2019-04-14T08:07:56.766Z,270.00
2019-04-14T08:08:56.765Z,275.62
2019-04-14T08:09:56.936Z,275.62
2019-04-14T08:10:56.762Z,275.62
2019-04-14T08:11:56.958Z,275.62
2019-04-14T08:12:56.727Z,275.62
2019-04-14T08:13:56.725Z,275.62
2019-04-14T08:14:56.779Z,275.62
2019-04-14T08:15:56.862Z,275.62
2019-04-14T08:16:56.732Z,275.62
2019-04-14T08:17:56.846Z,281.25
2019-04-14T08:18:56.678Z,281.25
2019-04-14T08:19:56.666Z,281.25
2019-04-14T08:20:56.653Z,281.25
2019-04-14T08:21:56.826Z,281.25
2019-04-14T08:22:57.892Z,281.25
2019-04-14T08:23:56.788Z,281.25
2019-04-14T08:24:56.611Z,281.25
2019-04-14T08:25:56.581Z,281.25
2019-04-14T08:26:56.614Z,286.88
2019-04-14T08:27:56.711Z,286.88
2019-04-14T08:28:56.568Z,286.88
2019-04-14T08:29:56.741Z,286.88
2019-04-14T08:30:56.545Z,286.88
2019-04-14T08:31:56.585Z,286.88
2019-04-14T08:32:56.503Z,286.88
2019-04-14T08:33:56.648Z,292.50
2019-04-14T08:34:56.513Z,292.50
2019-04-14T08:35:56.684Z,292.50
2019-04-14T08:36:56.473Z,292.50
2019-04-14T08:37:56.501Z,292.50
2019-04-14T08:38:56.508Z,292.50
2019-04-14T08:39:56.429Z,292.50
2019-04-14T08:40:56.535Z,292.50
2019-04-14T08:41:56.417Z,298.12
2019-04-14T08:42:56.736Z,298.12
2019-04-14T08:43:56.422Z,298.12
2019-04-14T08:44:56.533Z,298.12
2019-04-14T08:45:56.373Z,298.12
2019-04-14T08:46:56.476Z,303.75
2019-04-14T08:47:56.441Z,303.75
2019-04-14T08:48:56.464Z,303.75
2019-04-14T08:49:56.367Z,303.75
2019-04-14T08:50:56.391Z,303.75
2019-04-14T08:51:56.338Z,303.75
2019-04-14T08:52:56.438Z,309.38
2019-04-14T08:53:56.304Z,309.38
2019-04-14T08:54:56.399Z,309.38
2019-04-14T08:55:56.311Z,309.38
2019-04-14T08:56:56.270Z,315.00
2019-04-14T08:57:56.337Z,315.00
2019-04-14T08:58:56.302Z,315.00
2019-04-14T08:59:56.355Z,315.00
2019-04-14T09:00:56.240Z,320.62
2019-04-14T09:01:56.239Z,320.62
2019-04-14T09:02:56.219Z,320.62
2019-04-14T09:03:57.357Z,320.62
2019-04-14T09:04:56.308Z,326.25
2019-04-14T09:05:56.255Z,326.25
2019-04-14T09:06:56.180Z,326.25
2019-04-14T09:07:56.226Z,326.25
2019-04-14T09:08:56.164Z,326.25
2019-04-14T09:09:56.308Z,326.25
2019-04-14T09:10:56.147Z,331.88
2019-04-14T09:11:56.222Z,331.88
2019-04-14T09:12:56.111Z,331.88
2019-04-14T09:13:56.153Z,331.88
2019-04-14T09:14:57.535Z,331.88
2019-04-14T09:15:56.164Z,331.88
2019-04-14T09:16:56.062Z,331.88
2019-04-14T09:17:56.177Z,331.88
2019-04-14T09:19:07.172Z,337.50
2019-04-14T09:19:57.209Z,337.50
2019-04-14T09:20:56.034Z,337.50
2019-04-14T09:21:56.137Z,337.50
2019-04-14T09:22:55.996Z,337.50
2019-04-14T09:23:57.083Z,343.12
2019-04-14T09:24:56.034Z,343.12
2019-04-14T09:25:55.986Z,343.12
2019-04-14T09:26:55.975Z,348.75
2019-04-14T09:27:56.081Z,348.75
2019-04-14T09:28:55.930Z,348.75
2019-04-14T09:29:56.306Z,348.75
2019-04-14T09:30:55.933Z,348.75
2019-04-14T09:31:56.361Z,354.38
2019-04-14T09:32:55.888Z,354.38
2019-04-14T09:33:56.034Z,354.38
2019-04-14T09:34:55.912Z,354.38
2019-04-14T09:35:55.970Z,354.38
2019-04-14T09:36:55.850Z,354.38
2019-04-14T09:37:55.882Z,360.00
2019-04-14T09:38:56.104Z,360.00
2019-04-14T09:39:56.024Z,360.00
2019-04-14T09:40:55.836Z,360.00
2019-04-14T09:41:55.932Z,365.62
2019-04-14T09:42:57.729Z,365.62
2019-04-14T09:43:55.843Z,365.62
2019-04-14T09:44:55.808Z,371.25
2019-04-14T09:45:55.932Z,371.25
2019-04-14T09:46:55.741Z,376.88
2019-04-14T09:47:55.862Z,376.88
2019-04-14T09:48:55.719Z,376.88
2019-04-14T09:49:55.794Z,382.50
2019-04-14T09:51:04.737Z,382.50
2019-04-14T09:51:56.713Z,382.50
2019-04-14T09:52:55.837Z,388.12
2019-04-14T09:53:55.705Z,382.50
2019-04-14T09:54:55.787Z,382.50
2019-04-14T09:55:55.710Z,388.12
2019-04-14T09:56:55.662Z,388.12
2019-04-14T09:57:56.769Z,388.12
2019-04-14T09:58:55.620Z,388.12
2019-04-14T09:59:55.877Z,393.75
2019-04-14T10:00:55.672Z,393.75
2019-04-14T10:01:55.785Z,399.38
2019-04-14T10:02:55.598Z,399.38
2019-04-14T10:03:55.766Z,399.38
2019-04-14T10:04:56.027Z,405.00
2019-04-14T10:05:55.680Z,410.62
2019-04-14T10:06:55.576Z,410.62
2019-04-14T10:07:56.838Z,410.62
2019-04-14T10:08:55.672Z,410.62
2019-04-14T10:09:55.514Z,410.62
2019-04-14T10:10:56.542Z,410.62
2019-04-14T10:11:56.506Z,410.62
2019-04-14T10:12:56.636Z,410.62
2019-04-14T10:13:55.460Z,416.25
2019-04-14T10:14:55.452Z,421.88
2019-04-14T10:15:55.454Z,421.88
2019-04-14T10:16:55.663Z,421.88
2019-04-14T10:17:55.645Z,427.50
2019-04-14T10:18:58.756Z,438.75
2019-04-14T10:19:55.454Z,455.62
2019-04-14T10:20:55.432Z,444.38
2019-04-14T10:21:55.389Z,438.75
2019-04-14T10:22:55.782Z,438.75
2019-04-14T10:23:55.374Z,444.38
2019-04-14T10:24:55.577Z,461.25
2019-04-14T10:25:55.348Z,489.38
2019-04-14T10:26:55.349Z,483.75
2019-04-14T10:27:55.327Z,466.88
2019-04-14T10:28:55.520Z,489.38
2019-04-14T10:29:55.398Z,517.50
2019-04-14T10:30:55.337Z,489.38
2019-04-14T10:31:55.272Z,489.38
2019-04-14T10:32:55.293Z,500.62
2019-04-14T10:33:56.413Z,562.50
2019-04-14T10:34:55.659Z,573.75
2019-04-14T10:35:55.456Z,556.88
2019-04-14T10:36:55.269Z,545.62
2019-04-14T10:37:55.358Z,556.88
2019-04-14T10:38:55.403Z,556.88
2019-04-14T10:39:55.422Z,517.50
2019-04-14T10:40:55.292Z,511.88
2019-04-14T10:41:55.396Z,489.38
2019-04-14T10:42:55.157Z,511.88
2019-04-14T10:43:55.304Z,551.25
2019-04-14T10:44:55.154Z,562.50
2019-04-14T10:45:55.317Z,545.62
2019-04-14T10:46:55.147Z,528.75
2019-04-14T10:47:55.330Z,528.75
2019-04-14T10:48:55.106Z,551.25
2019-04-14T10:49:55.453Z,573.75
2019-04-14T10:50:55.093Z,624.38
2019-04-14T10:51:55.261Z,686.25
2019-04-14T10:52:55.090Z,691.88
2019-04-14T10:53:55.173Z,663.75
2019-04-14T10:54:55.077Z,658.12
2019-04-14T10:55:55.166Z,624.38
2019-04-14T10:56:55.028Z,579.38
2019-04-14T10:57:55.204Z,534.38
2019-04-14T10:58:55.007Z,545.62
2019-04-14T10:59:55.167Z,585.00
2019-04-14T11:00:54.975Z,635.62
2019-04-14T11:01:55.104Z,843.75
2019-04-14T11:02:55.007Z,1546.88
2019-04-14T11:03:55.141Z,1867.50
2019-04-14T11:04:54.961Z,1912.50
2019-04-14T11:05:55.042Z,1828.12
2019-04-14T11:06:54.906Z,1648.12
2019-04-14T11:07:55.063Z,1603.12
2019-04-14T11:08:54.886Z,1485.00
2019-04-14T11:09:55.048Z,1237.50
2019-04-14T11:10:54.882Z,984.38
2019-04-14T11:11:54.976Z,933.75
2019-04-14T11:12:54.852Z,843.75
2019-04-14T11:13:54.974Z,793.12
2019-04-14T11:14:54.939Z,759.38
2019-04-14T11:15:55.005Z,810.00
2019-04-14T11:16:54.807Z,888.75
2019-04-14T11:17:55.755Z,905.62
2019-04-14T11:18:54.928Z,883.12
2019-04-14T11:19:54.980Z,855.00
2019-04-14T11:20:54.757Z,810.00
2019-04-14T11:21:54.946Z,866.25
2019-04-14T11:23:03.188Z,922.50
2019-04-14T11:23:55.810Z,1018.12
2019-04-14T11:24:54.916Z,995.62
2019-04-14T11:25:54.726Z,877.50
2019-04-14T11:26:54.713Z,781.88
2019-04-14T11:27:54.861Z,596.25
2019-04-14T11:28:54.683Z,523.12
2019-04-14T11:29:54.976Z,489.38
2019-04-14T11:30:54.685Z,466.88
2019-04-14T11:31:54.829Z,511.88
2019-04-14T11:32:54.654Z,568.12
2019-04-14T11:33:54.832Z,596.25
2019-04-14T11:34:54.658Z,613.12
2019-04-14T11:35:54.735Z,641.25
2019-04-14T11:36:54.606Z,759.38
2019-04-14T11:37:54.583Z,680.62
2019-04-14T11:38:54.584Z,663.75
2019-04-14T11:39:54.718Z,720.00
2019-04-14T11:40:54.586Z,787.50
2019-04-14T11:41:54.664Z,911.25
2019-04-14T11:42:54.545Z,945.00
2019-04-14T11:43:54.525Z,759.38
2019-04-14T11:44:54.614Z,753.75
2019-04-14T11:45:54.720Z,703.12
2019-04-14T11:46:54.490Z,691.88
2019-04-14T11:47:54.678Z,742.50
2019-04-14T11:48:54.468Z,776.25
2019-04-14T11:49:54.553Z,725.62
2019-04-14T11:50:54.458Z,708.75
2019-04-14T11:51:55.793Z,714.38
2019-04-14T11:52:54.442Z,736.88
2019-04-14T11:53:54.532Z,793.12
2019-04-14T11:54:54.489Z,849.38
2019-04-14T11:55:54.429Z,922.50
2019-04-14T11:56:54.380Z,905.62
2019-04-14T11:57:54.457Z,900.00
2019-04-14T11:58:54.379Z,804.38
2019-04-14T11:59:54.529Z,804.38
2019-04-14T12:00:54.375Z,883.12
2019-04-14T12:01:54.332Z,855.00
2019-04-14T12:02:54.537Z,821.25
2019-04-14T12:03:54.342Z,855.00
2019-04-14T12:04:54.419Z,866.25
2019-04-14T12:05:54.279Z,888.75
2019-04-14T12:06:54.488Z,911.25
2019-04-14T12:07:54.292Z,973.12
2019-04-14T12:08:54.458Z,984.38
2019-04-14T12:09:54.291Z,911.25
2019-04-14T12:10:54.361Z,838.12
2019-04-14T12:11:54.543Z,708.75
2019-04-14T12:12:54.350Z,697.50
2019-04-14T12:13:54.223Z,635.62
2019-04-14T12:14:54.390Z,545.62
2019-04-14T12:15:54.186Z,489.38
2019-04-14T12:16:54.294Z,528.75
2019-04-14T12:17:54.328Z,635.62
2019-04-14T12:18:54.334Z,720.00
2019-04-14T12:19:54.144Z,742.50
2019-04-14T12:20:54.332Z,736.88
2019-04-14T12:21:54.119Z,770.62
2019-04-14T12:22:54.322Z,860.62
2019-04-14T12:23:54.155Z,877.50
2019-04-14T12:24:54.257Z,731.25
2019-04-14T12:26:04.731Z,573.75
2019-04-14T12:26:55.076Z,517.50
2019-04-14T12:27:54.165Z,483.75
2019-04-14T12:28:54.099Z,472.50
2019-04-14T12:29:54.487Z,455.62
2019-04-14T12:30:54.047Z,427.50
2019-04-14T12:31:55.192Z,405.00
2019-04-14T12:32:54.192Z,399.38
2019-04-14T12:33:53.994Z,410.62
2019-04-14T12:34:54.294Z,421.88
2019-04-14T12:35:53.966Z,421.88
2019-04-14T12:36:54.422Z,421.88
2019-04-14T12:37:54.324Z,421.88
2019-04-14T12:38:54.064Z,427.50
2019-04-14T12:39:54.621Z,410.62
2019-04-14T12:40:56.355Z,393.75
2019-04-14T12:41:53.896Z,360.00
2019-04-14T12:42:54.030Z,320.62
2019-04-14T12:43:53.911Z,281.25
2019-04-14T12:44:54.051Z,270.00
2019-04-14T12:45:53.851Z,275.62
2019-04-14T12:46:54.033Z,303.75
2019-04-14T12:47:53.857Z,326.25
2019-04-14T12:48:54.150Z,354.38
2019-04-14T12:49:54.498Z,399.38
2019-04-14T12:50:53.901Z,455.62
2019-04-14T12:51:53.793Z,517.50
2019-04-14T12:52:53.953Z,540.00
2019-04-14T12:53:53.866Z,528.75
2019-04-14T12:54:53.750Z,489.38
2019-04-14T12:55:53.761Z,450.00
2019-04-14T12:56:53.790Z,416.25
2019-04-14T12:57:53.814Z,405.00
2019-04-14T12:58:53.912Z,410.62